WET,Max TemperatureF,Mean TemperatureF,Min TemperatureF,Max Dew PointF,MeanDew PointF,Min DewpointF,Max Humidity, Mean Humidity, Min Humidity, Max Sea Level PressureIn, Mean Sea Level PressureIn, Min Sea Level PressureIn, Max VisibilityMiles, Mean VisibilityMiles, Min VisibilityMiles, Max Wind SpeedMPH, Mean Wind SpeedMPH, Max Gust SpeedMPH,PrecipitationIn, CloudCover, Events, WindDirDegrees
2011-10-1,91,80,68,66,62,57,83,61,31,30.06,30.00,29.95,6,5,4,10,6,,0.00,3,,262
2011-10-2,102,85,68,66,57,43,83,48,14,30.18,30.06,30.01,6,5,3,18,5,33,0.00,3,,1
2011-10-3,84,76,68,66,57,50,94,51,30,30.30,30.23,30.18,6,5,3,12,5,,0.00,5,,240
2011-10-4,93,83,73,59,54,50,53,38,23,30.18,30.13,30.06,6,5,3,10,4,,0.00,3,,315
2011-10-5,95,82,68,63,54,41,73,42,21,30.09,30.06,30.01,6,5,3,12,5,22,0.00,3,,287
2011-10-6,95,78,62,57,47,37,68,36,13,30.15,30.08,30.04,6,6,4,14,5,,0.00,1,,302
2011-10-7,95,78,62,54,43,32,52,30,12,30.18,30.12,30.04,6,6,4,14,4,,0.00,1,,1
2011-10-8,93,76,60,63,51,36,94,48,14,30.12,30.06,30.01,6,5,3,8,5,,0.00,1,,350
2011-10-9,96,79,62,59,49,41,64,38,15,30.15,30.09,30.06,6,6,3,12,3,,0.00,1,,280
2011-10-10,98,81,64,55,46,39,60,34,14,30.24,30.16,30.12,6,4,3,13,4,,0.00,2,,59
2011-10-11,98,81,64,50,44,39,46,28,14,30.27,30.20,30.12,6,4,3,12,5,,0.00,3,,27
2011-10-12,95,80,64,59,48,39,64,36,14,30.18,30.12,30.06,6,5,4,12,5,,0.00,2,,273
2011-10-13,95,80,64,59,52,39,64,41,14,30.12,30.08,30.04,5,4,2,12,4,,0.00,3,,316
2011-10-14,95,78,62,63,51,41,77,43,15,30.09,30.05,30.01,5,4,1,18,5,36,0.00,1,,259
2011-10-15,96,79,62,64,50,36,94,46,12,30.09,30.05,30.01,6,5,3,13,5,,0.00,3,,12
2011-10-16,95,78,62,57,48,37,64,40,13,30.12,30.07,30.01,6,5,3,15,5,25,0.00,4,,251
2011-10-17,93,78,64,55,48,43,64,38,19,30.09,30.05,30.01,6,5,4,10,4,,0.00,3,,282
2011-10-18,86,74,62,55,49,43,77,46,22,30.12,30.06,30.01,6,5,4,8,4,,0.00,3,,236
2011-10-19,86,72,59,55,48,43,68,40,23,30.15,30.11,30.06,6,5,4,12,5,,0.00,1,,265
2011-10-20,86,72,57,61,53,48,88,55,29,30.12,30.06,30.01,5,4,3,12,4,20,0.00,5,,275
2011-10-21,73,68,62,61,56,52,88,65,50,30.01,29.97,29.92,5,4,3,10,5,,0.00,5,Rain,53
2011-10-22,75,66,57,61,59,55,100,80,57,30.04,29.98,29.92,4,3,2,9,6,,0.00,6,Rain,250
2011-10-23,78,69,60,61,56,50,94,69,44,30.06,30.01,29.95,5,4,3,14,6,,0.00,5,Rain,252
2011-10-24,82,68,55,63,55,48,100,72,30,29.98,29.88,29.80,6,5,1,12,4,,0.00,4,Rain,209
2011-10-25,77,68,59,61,56,48,100,72,38,29.98,29.94,29.86,6,6,2,10,5,,0.00,5,Rain,45
2011-10-26,78,66,55,61,56,54,100,73,44,30.04,29.98,29.92,6,5,4,8,5,,0.00,4,,261
2011-10-27,68,62,55,61,57,54,100,87,64,30.12,30.08,30.01,6,5,1,9,5,,0.00,5,Rain,220
2011-10-28,71,61,51,57,54,52,100,77,50,30.15,30.10,30.09,6,6,5,10,6,,0.00,4,,64
2011-10-29,73,62,51,55,52,46,100,72,38,30.15,30.10,30.06,6,5,4,9,6,,0.00,,,73
2011-10-30,82,66,51,54,51,43,94,63,28,30.09,30.07,30.01,6,6,5,6,4,,0.00,5,,66
2011-10-31,86,70,55,54,50,43,88,55,23,30.06,30.04,30.01,6,6,4,12,4,,0.00,2,,74